sensor_id;sensor_type;location;lat;lon;timestamp;pressure;altitude;pressure_sealevel;temperature;humidity
79639;BME280;69114;49.108;8.280;2024-01-07T00:00:12;99920.50;;;3.20;100.00
79639;BME280;69114;49.108;8.280;2024-01-07T00:02:38;99927.38;;;3.23;100.00
79639;BME280;69114;49.108;8.280;2024-01-07T00:05:03;99929.56;;;3.26;100.00
79639;BME280;69114;49.108;8.280;2024-01-07T00:07:29;99929.56;;;3.26;100.00
79639;BME280;69114;49.108;8.280;2024-01-07T00:09:54;99925.47;;;3.23;100.00
79639;BME280;69114;49.108;8.280;2024-01-07T00:12:19;99922.97;;;3.22;100.00
79639;BME280;69114;49.108;8.280;2024-01-07T00:14:45;99932.31;;;3.21;100.00
79639;BME280;69114;49.108;8.280;2024-01-07T00:17:10;99926.28;;;3.19;100.00
79639;BME280;69114;49.108;8.280;2024-01-07T00:19:35;99938.94;;;3.15;100.00
79639;BME280;69114;49.108;8.280;2024-01-07T00:22:02;99935.59;;;3.13;100.00
79639;BME280;69114;49.108;8.280;2024-01-07T00:24:28;99936.44;;;3.13;100.00
79639;BME280;69114;49.108;8.280;2024-01-07T00:26:54;99944.44;;;3.15;100.00
79639;BME280;69114;49.108;8.280;2024-01-07T00:29:20;99938.38;;;3.18;100.00
79639;BME280;69114;49.108;8.280;2024-01-07T00:31:45;99938.94;;;3.15;100.00
79639;BME280;69114;49.108;8.280;2024-01-07T00:34:10;99934.78;;;3.12;100.00
79639;BME280;69114;49.108;8.280;2024-01-07T00:36:36;99949.38;;;3.13;100.00
79639;BME280;69114;49.108;8.280;2024-01-07T00:39:01;99943.34;;;3.16;100.00
79639;BME280;69114;49.108;8.280;2024-01-07T00:41:26;99947.19;;;3.15;100.00
79639;BME280;69114;49.108;8.280;2024-01-07T00:43:52;99940.03;;;3.14;100.00
79639;BME280;69114;49.108;8.280;2024-01-07T00:46:17;99943.03;;;3.12;100.00
79639;BME280;69114;49.108;8.280;2024-01-07T00:48:43;99938.34;;;3.07;100.00
79639;BME280;69114;49.108;8.280;2024-01-07T00:51:08;99947.44;;;3.08;100.00
79639;BME280;69114;49.108;8.280;2024-01-07T00:53:33;99954.31;;;3.05;100.00
79639;BME280;69114;49.108;8.280;2024-01-07T00:55:59;99948.81;;;3.05;100.00
79639;BME280;69114;49.108;8.280;2024-01-07T00:58:24;99950.19;;;3.03;100.00
79639;BME280;69114;49.108;8.280;2024-01-07T01:00:50;99948.25;;;3.03;100.00
79639;BME280;69114;49.108;8.280;2024-01-07T01:03:16;99951.28;;;3.02;100.00
79639;BME280;69114;49.108;8.280;2024-01-07T01:05:41;99953.22;;;3.01;100.00
79639;BME280;69114;49.108;8.280;2024-01-07T01:08:06;99953.22;;;3.01;100.00
79639;BME280;69114;49.108;8.280;2024-01-07T01:10:32;99943.03;;;3.02;100.00
79639;BME280;69114;49.108;8.280;2024-01-07T01:12:57;99954.84;;;3.02;100.00
79639;BME280;69114;49.108;8.280;2024-01-07T01:15:22;99957.34;;;3.04;100.00
79639;BME280;69114;49.108;8.280;2024-01-07T01:17:48;99958.19;;;3.04;100.00
79639;BME280;69114;49.108;8.280;2024-01-07T01:20:13;99950.75;;;3.00;100.00
79639;BME280;69114;49.108;8.280;2024-01-07T01:22:39;99964.50;;;3.00;100.00
79639;BME280;69114;49.108;8.280;2024-01-07T01:25:05;99970.53;;;3.02;100.00
79639;BME280;69114;49.108;8.280;2024-01-07T01:27:30;99965.56;;;2.99;100.00
79639;BME280;69114;49.108;8.280;2024-01-07T01:29:55;99966.44;;;2.99;100.00
79639;BME280;69114;49.108;8.280;2024-01-07T01:32:21;99959.81;;;3.00;100.00
79639;BME280;69114;49.108;8.280;2024-01-07T01:34:46;99971.94;;;2.99;100.00
79639;BME280;69114;49.108;8.280;2024-01-07T01:37:11;99971.38;;;3.02;100.00
79639;BME280;69114;49.108;8.280;2024-01-07T01:39:40;99965.84;;;3.02;100.00
79639;BME280;69114;49.108;8.280;2024-01-07T01:42:06;99969.19;;;3.04;100.00
79639;BME280;69114;49.108;8.280;2024-01-07T01:44:31;99971.38;;;3.02;100.00
79639;BME280;69114;49.108;8.280;2024-01-07T01:46:57;99970.25;;;2.98;100.00
79639;BME280;69114;49.108;8.280;2024-01-07T01:49:23;99964.22;;;3.01;100.00
79639;BME280;69114;49.108;8.280;2024-01-07T01:51:49;99977.44;;;2.99;100.00
79639;BME280;69114;49.108;8.280;2024-01-07T01:54:15;99970.81;;;3.00;100.00
79639;BME280;69114;49.108;8.280;2024-01-07T01:56:40;99973.56;;;3.00;100.00
79639;BME280;69114;49.108;8.280;2024-01-07T01:59:06;99971.38;;;3.02;100.00
79639;BME280;69114;49.108;8.280;2024-01-07T02:01:31;99974.41;;;3.01;100.00
79639;BME280;69114;49.108;8.280;2024-01-07T02:03:57;99969.72;;;3.01;100.00
79639;BME280;69114;49.108;8.280;2024-01-07T02:06:23;99971.38;;;3.02;100.00
79639;BME280;69114;49.108;8.280;2024-01-07T02:08:49;99973.00;;;3.03;100.00
79639;BME280;69114;49.108;8.280;2024-01-07T02:11:21;99967.50;;;3.03;100.00
79639;BME280;69114;49.108;8.280;2024-01-07T02:13:48;99967.78;;;3.02;100.00
79639;BME280;69114;49.108;8.280;2024-01-07T02:16:14;99975.75;;;3.03;100.00
79639;BME280;69114;49.108;8.280;2024-01-07T02:18:41;99980.19;;;3.04;100.00
79639;BME280;69114;49.108;8.280;2024-01-07T02:21:08;99983.47;;;3.06;100.00
79639;BME280;69114;49.108;8.280;2024-01-07T02:23:34;99980.72;;;3.06;100.00
79639;BME280;69114;49.108;8.280;2024-01-07T02:25:59;99979.38;;;3.09;100.00
79639;BME280;69114;49.108;8.280;2024-01-07T02:28:24;99986.25;;;3.12;100.00
79639;BME280;69114;49.108;8.280;2024-01-07T02:30:49;99986.25;;;3.12;100.00
79639;BME280;69114;49.108;8.280;2024-01-07T02:33:15;99986.25;;;3.12;100.00
79639;BME280;69114;49.108;8.280;2024-01-07T02:35:40;99982.13;;;3.09;100.00
79639;BME280;69114;49.108;8.280;2024-01-07T02:38:05;99976.06;;;3.07;100.00
79639;BME280;69114;49.108;8.280;2024-01-07T02:40:31;99983.78;;;3.05;100.00
79639;BME280;69114;49.108;8.280;2024-01-07T02:42:56;99975.75;;;3.03;100.00
79639;BME280;69114;49.108;8.280;2024-01-07T02:45:22;99980.72;;;3.01;100.00
79639;BME280;69114;49.108;8.280;2024-01-07T02:47:47;99984.28;;;3.02;100.00
79639;BME280;69114;49.108;8.280;2024-01-07T02:50:13;99980.72;;;3.01;100.00
79639;BME280;69114;49.108;8.280;2024-01-07T02:52:38;99979.91;;;3.01;100.00
79639;BME280;69114;49.108;8.280;2024-01-07T02:55:04;99977.69;;;3.03;100.00
79639;BME280;69114;49.108;8.280;2024-01-07T02:57:29;99976.03;;;3.02;100.00
79639;BME280;69114;49.108;8.280;2024-01-07T02:59:54;99980.44;;;3.03;100.00
79639;BME280;69114;49.108;8.280;2024-01-07T03:02:20;99980.19;;;3.04;100.00
79639;BME280;69114;49.108;8.280;2024-01-07T03:04:45;99979.06;;;3.00;100.00
79639;BME280;69114;49.108;8.280;2024-01-07T03:07:10;99981.53;;;3.02;100.00
79639;BME280;69114;49.108;8.280;2024-01-07T03:09:36;99990.09;;;3.00;100.00
79639;BME280;69114;49.108;8.280;2024-01-07T03:12:01;99991.72;;;3.01;100.00
79639;BME280;69114;49.108;8.280;2024-01-07T03:14:26;99985.41;;;3.01;100.00
79639;BME280;69114;49.108;8.280;2024-01-07T03:16:52;99988.44;;;2.99;100.00
79639;BME280;69114;49.108;8.280;2024-01-07T03:19:17;99997.22;;;3.01;100.00
79639;BME280;69114;49.108;8.280;2024-01-07T03:21:43;99994.75;;;3.00;100.00
79639;BME280;69114;49.108;8.280;2024-01-07T03:24:08;99992.84;;;3.00;100.00
79639;BME280;69114;49.108;8.280;2024-01-07T03:26:33;99994.75;;;3.00;100.00
79639;BME280;69114;49.108;8.280;2024-01-07T03:28:59;99999.44;;;2.99;100.00
79639;BME280;69114;49.108;8.280;2024-01-07T03:31:26;100004.09;;;2.99;100.00
79639;BME280;69114;49.108;8.280;2024-01-07T03:33:51;99997.75;;;2.98;100.00
79639;BME280;69114;49.108;8.280;2024-01-07T03:36:16;99994.47;;;2.96;100.00
79639;BME280;69114;49.108;8.280;2024-01-07T03:38:42;99996.94;;;2.98;100.00
79639;BME280;69114;49.108;8.280;2024-01-07T03:41:07;99996.63;;;2.94;100.00
79639;BME280;69114;49.108;8.280;2024-01-07T03:43:33;99998.31;;;2.95;100.00
79639;BME280;69114;49.108;8.280;2024-01-07T03:45:59;99984.00;;;2.93;100.00
79639;BME280;69114;49.108;8.280;2024-01-07T03:48:25;99994.16;;;2.93;100.00
79639;BME280;69114;49.108;8.280;2024-01-07T03:50:51;99996.91;;;2.93;100.00
79639;BME280;69114;49.108;8.280;2024-01-07T03:53:17;99997.75;;;2.93;100.00
79639;BME280;69114;49.108;8.280;2024-01-07T03:55:42;100005.47;;;2.96;100.00
79639;BME280;69114;49.108;8.280;2024-01-07T03:58:07;100010.97;;;2.96;100.00
79639;BME280;69114;49.108;8.280;2024-01-07T04:00:33;100006.56;;;2.95;100.00
79639;BME280;69114;49.108;8.280;2024-01-07T04:02:59;100007.66;;;2.94;100.00
79639;BME280;69114;49.108;8.280;2024-01-07T04:05:24;100011.50;;;2.93;100.00
79639;BME280;69114;49.108;8.280;2024-01-07T04:07:50;100008.22;;;2.91;100.00
79639;BME280;69114;49.108;8.280;2024-01-07T04:10:18;100017.81;;;2.89;100.00
79639;BME280;69114;49.108;8.280;2024-01-07T04:12:44;100018.63;;;2.84;100.00
79639;BME280;69114;49.108;8.280;2024-01-07T04:15:10;100024.94;;;2.85;100.00
79639;BME280;69114;49.108;8.280;2024-01-07T04:17:35;100016.97;;;2.83;100.00
79639;BME280;69114;49.108;8.280;2024-01-07T04:20:01;100017.47;;;2.75;100.00
79639;BME280;69114;49.108;8.280;2024-01-07T04:22:26;100014.47;;;2.71;100.00
79639;BME280;69114;49.108;8.280;2024-01-07T04:24:51;100024.34;;;2.72;100.00
79639;BME280;69114;49.108;8.280;2024-01-07T04:27:17;100020.50;;;2.73;100.00
79639;BME280;69114;49.108;8.280;2024-01-07T04:29:42;100022.44;;;2.73;100.00
79639;BME280;69114;49.108;8.280;2024-01-07T04:32:07;100032.59;;;2.72;100.00
79639;BME280;69114;49.108;8.280;2024-01-07T04:34:33;100029.03;;;2.72;100.00
79639;BME280;69114;49.108;8.280;2024-01-07T04:36:58;100028.75;;;2.73;100.00
79639;BME280;69114;49.108;8.280;2024-01-07T04:39:23;100034.25;;;2.73;100.00
79639;BME280;69114;49.108;8.280;2024-01-07T04:41:49;100033.97;;;2.75;100.00
79639;BME280;69114;49.108;8.280;2024-01-07T04:44:14;100033.97;;;2.75;100.00
79639;BME280;69114;49.108;8.280;2024-01-07T04:46:39;100029.56;;;2.74;100.00
79639;BME280;69114;49.108;8.280;2024-01-07T04:49:05;100038.41;;;2.76;100.00
79639;BME280;69114;49.108;8.280;2024-01-07T04:51:32;100031.22;;;2.75;100.00
79639;BME280;69114;49.108;8.280;2024-01-07T04:53:57;100046.09;;;2.74;100.00
79639;BME280;69114;49.108;8.280;2024-01-07T04:56:22;100055.19;;;2.79;100.00
79639;BME280;69114;49.108;8.280;2024-01-07T04:58:48;100059.84;;;2.79;100.00
79639;BME280;69114;49.108;8.280;2024-01-07T05:01:13;100056.00;;;2.80;100.00
79639;BME280;69114;49.108;8.280;2024-01-07T05:03:39;100057.38;;;2.77;100.00
79639;BME280;69114;49.108;8.280;2024-01-07T05:06:04;100048.84;;;2.79;100.00
79639;BME280;69114;49.108;8.280;2024-01-07T05:08:30;100052.69;;;2.78;100.00
79639;BME280;69114;49.108;8.280;2024-01-07T05:10:55;100054.34;;;2.79;100.00
79639;BME280;69114;49.108;8.280;2024-01-07T05:13:21;100060.97;;;2.78;100.00
79639;BME280;69114;49.108;8.280;2024-01-07T05:15:46;100062.06;;;2.77;100.00
79639;BME280;69114;49.108;8.280;2024-01-07T05:18:21;100067.00;;;2.80;100.00
79639;BME280;69114;49.108;8.280;2024-01-07T05:20:47;100067.84;;;2.80;100.00
79639;BME280;69114;49.108;8.280;2024-01-07T05:23:12;100073.34;;;2.80;100.00
79639;BME280;69114;49.108;8.280;2024-01-07T05:25:38;100069.50;;;2.81;100.00
79639;BME280;69114;49.108;8.280;2024-01-07T05:28:03;100074.72;;;2.83;100.00
79639;BME280;69114;49.108;8.280;2024-01-07T05:30:28;100075.31;;;2.85;100.00
79639;BME280;69114;49.108;8.280;2024-01-07T05:32:54;100076.97;;;2.86;100.00
79639;BME280;69114;49.108;8.280;2024-01-07T05:35:19;100078.59;;;2.87;100.00
79639;BME280;69114;49.108;8.280;2024-01-07T05:37:44;100078.84;;;2.80;100.00
79639;BME280;69114;49.108;8.280;2024-01-07T05:40:10;100074.44;;;2.79;100.00
79639;BME280;69114;49.108;8.280;2024-01-07T05:42:36;100074.72;;;2.78;100.00
79639;BME280;69114;49.108;8.280;2024-01-07T05:45:01;100081.84;;;2.74;100.00
79639;BME280;69114;49.108;8.280;2024-01-07T05:47:28;100079.09;;;2.74;100.00
79639;BME280;69114;49.108;8.280;2024-01-07T05:49:53;100080.72;;;2.75;100.00
79639;BME280;69114;49.108;8.280;2024-01-07T05:52:19;100085.41;;;2.74;100.00
79639;BME280;69114;49.108;8.280;2024-01-07T05:54:44;100082.94;;;2.73;100.00
79639;BME280;69114;49.108;8.280;2024-01-07T05:57:11;100080.19;;;2.73;100.00
79639;BME280;69114;49.108;8.280;2024-01-07T05:59:37;100090.09;;;2.74;100.00
79639;BME280;69114;49.108;8.280;2024-01-07T06:02:02;100085.69;;;2.73;100.00
79639;BME280;69114;49.108;8.280;2024-01-07T06:04:28;100084.84;;;2.72;100.00
79639;BME280;69114;49.108;8.280;2024-01-07T06:06:53;100086.78;;;2.72;100.00
79639;BME280;69114;49.108;8.280;2024-01-07T06:09:19;100091.47;;;2.71;100.00
79639;BME280;69114;49.108;8.280;2024-01-07T06:11:44;100093.09;;;2.72;100.00
79639;BME280;69114;49.108;8.280;2024-01-07T06:14:09;100094.75;;;2.73;100.00
79639;BME280;69114;49.108;8.280;2024-01-07T06:16:34;100088.44;;;2.73;100.00
79639;BME280;69114;49.108;8.280;2024-01-07T06:19:00;100092.84;;;2.74;100.00
79639;BME280;69114;49.108;8.280;2024-01-07T06:21:25;100094.75;;;2.73;100.00
79639;BME280;69114;49.108;8.280;2024-01-07T06:23:51;100101.91;;;2.74;100.00
79639;BME280;69114;49.108;8.280;2024-01-07T06:26:17;100104.66;;;2.74;100.00
79639;BME280;69114;49.108;8.280;2024-01-07T06:28:42;100109.91;;;2.76;100.00
79639;BME280;69114;49.108;8.280;2024-01-07T06:31:08;100111.56;;;2.77;100.00
79639;BME280;69114;49.108;8.280;2024-01-07T06:33:33;100119.53;;;2.78;100.00
79639;BME280;69114;49.108;8.280;2024-01-07T06:36:00;100123.38;;;2.77;100.00
79639;BME280;69114;49.108;8.280;2024-01-07T06:38:25;100125.03;;;2.78;100.00
79639;BME280;69114;49.108;8.280;2024-01-07T06:40:50;100124.75;;;2.80;100.00
79639;BME280;69114;49.108;8.280;2024-01-07T06:43:16;100127.50;;;2.80;100.00
79639;BME280;69114;49.108;8.280;2024-01-07T06:45:42;100134.13;;;2.79;100.00
79639;BME280;69114;49.108;8.280;2024-01-07T06:48:07;100136.88;;;2.79;100.00
79639;BME280;69114;49.108;8.280;2024-01-07T06:50:33;100135.22;;;2.78;100.00
79639;BME280;69114;49.108;8.280;2024-01-07T06:52:58;100140.72;;;2.78;100.00
79639;BME280;69114;49.108;8.280;2024-01-07T06:55:23;100144.03;;;2.80;100.00
79639;BME280;69114;49.108;8.280;2024-01-07T06:57:49;100130.03;;;2.81;100.00
79639;BME280;69114;49.108;8.280;2024-01-07T07:00:14;100146.78;;;2.80;100.00
79639;BME280;69114;49.108;8.280;2024-01-07T07:02:40;100160.53;;;2.80;100.00
79639;BME280;69114;49.108;8.280;2024-01-07T07:05:05;100154.78;;;2.81;100.00
79639;BME280;69114;49.108;8.280;2024-01-07T07:07:31;100151.44;;;2.79;100.00
79639;BME280;69114;49.108;8.280;2024-01-07T07:09:56;100155.88;;;2.80;100.00
79639;BME280;69114;49.108;8.280;2024-01-07T07:12:21;100163.84;;;2.82;100.00
79639;BME280;69114;49.108;8.280;2024-01-07T07:14:47;100157.25;;;2.83;100.00
79639;BME280;69114;49.108;8.280;2024-01-07T07:17:13;100163.03;;;2.81;100.00
79639;BME280;69114;49.108;8.280;2024-01-07T07:19:38;100171.00;;;2.83;100.00
79639;BME280;69114;49.108;8.280;2024-01-07T07:22:04;100176.50;;;2.83;100.00
79639;BME280;69114;49.108;8.280;2024-01-07T07:24:29;100176.22;;;2.85;100.00
79639;BME280;69114;49.108;8.280;2024-01-07T07:26:55;100181.50;;;2.86;100.00
79639;BME280;69114;49.108;8.280;2024-01-07T07:29:20;100176.00;;;2.86;100.00
79639;BME280;69114;49.108;8.280;2024-01-07T07:31:45;100180.66;;;2.86;100.00
79639;BME280;69114;49.108;8.280;2024-01-07T07:34:10;100183.13;;;2.87;100.00
79639;BME280;69114;49.108;8.280;2024-01-07T07:36:37;100187.53;;;2.88;100.00
79639;BME280;69114;49.108;8.280;2024-01-07T07:39:02;100189.75;;;2.86;100.00
79639;BME280;69114;49.108;8.280;2024-01-07T07:41:27;100184.25;;;2.86;100.00
79639;BME280;69114;49.108;8.280;2024-01-07T07:43:53;100190.56;;;2.87;100.00
79639;BME280;69114;49.108;8.280;2024-01-07T07:46:19;100201.88;;;2.90;100.00
79639;BME280;69114;49.108;8.280;2024-01-07T07:48:45;100201.59;;;2.92;100.00
79639;BME280;69114;49.108;8.280;2024-01-07T07:51:10;100196.38;;;2.90;100.00
79639;BME280;69114;49.108;8.280;2024-01-07T07:53:38;100198.84;;;2.92;100.00
79639;BME280;69114;49.108;8.280;2024-01-07T07:56:05;100200.50;;;2.93;100.00
79639;BME280;69114;49.108;8.280;2024-01-07T07:58:31;100198.84;;;2.92;100.00
79639;BME280;69114;49.108;8.280;2024-01-07T08:00:56;100209.56;;;2.93;100.00
79639;BME280;69114;49.108;8.280;2024-01-07T08:03:21;100212.91;;;2.95;100.00
79639;BME280;69114;49.108;8.280;2024-01-07T08:05:47;100196.41;;;2.95;100.00
79639;BME280;69114;49.108;8.280;2024-01-07T08:08:12;100206.31;;;2.96;100.00
79639;BME280;69114;49.108;8.280;2024-01-07T08:10:37;100204.66;;;2.95;100.00
79639;BME280;69114;49.108;8.280;2024-01-07T08:13:03;100216.22;;;2.97;100.00
79639;BME280;69114;49.108;8.280;2024-01-07T08:15:28;100218.69;;;2.99;100.00
79639;BME280;69114;49.108;8.280;2024-01-07T08:17:53;100217.88;;;2.98;100.00
79639;BME280;69114;49.108;8.280;2024-01-07T08:20:19;100214.88;;;3.00;100.00
79639;BME280;69114;49.108;8.280;2024-01-07T08:22:47;100212.97;;;3.05;100.00
79639;BME280;69114;49.108;8.280;2024-01-07T08:25:12;100227.84;;;3.04;100.00
79639;BME280;69114;49.108;8.280;2024-01-07T08:27:40;100223.16;;;3.05;100.00
79639;BME280;69114;49.108;8.280;2024-01-07T08:30:06;100224.53;;;3.07;100.00
79639;BME280;69114;49.108;8.280;2024-01-07T08:32:32;100241.63;;;3.10;100.00
79639;BME280;69114;49.108;8.280;2024-01-07T08:34:57;100239.44;;;3.12;100.00
79639;BME280;69114;49.108;8.280;2024-01-07T08:37:22;100240.25;;;3.12;100.00
79639;BME280;69114;49.108;8.280;2024-01-07T08:39:47;100240.00;;;3.14;100.00
79639;BME280;69114;49.108;8.280;2024-01-07T08:42:13;100244.41;;;3.15;100.00
79639;BME280;69114;49.108;8.280;2024-01-07T08:44:38;100240.03;;;3.19;100.00
79639;BME280;69114;49.108;8.280;2024-01-07T08:47:04;100247.50;;;3.23;100.00
79639;BME280;69114;49.108;8.280;2024-01-07T08:49:31;100255.75;;;3.23;100.00
79639;BME280;69114;49.108;8.280;2024-01-07T08:51:58;100251.31;;;3.22;100.00
79639;BME280;69114;49.108;8.280;2024-01-07T08:54:23;100254.34;;;3.21;100.00
79639;BME280;69114;49.108;8.280;2024-01-07T08:56:48;100256.00;;;3.22;100.00
79639;BME280;69114;49.108;8.280;2024-01-07T08:59:14;100270.88;;;3.21;100.00
79639;BME280;69114;49.108;8.280;2024-01-07T09:01:39;100270.59;;;3.22;100.00
79639;BME280;69114;49.108;8.280;2024-01-07T09:04:05;100267.00;;;3.22;100.00
79639;BME280;69114;49.108;8.280;2024-01-07T09:06:30;100267.56;;;3.19;100.00
79639;BME280;69114;49.108;8.280;2024-01-07T09:08:57;100267.56;;;3.19;100.00
79639;BME280;69114;49.108;8.280;2024-01-07T09:11:22;100273.34;;;3.22;100.00
79639;BME280;69114;49.108;8.280;2024-01-07T09:13:48;100279.97;;;3.26;100.00
79639;BME280;69114;49.108;8.280;2024-01-07T09:16:15;100275.03;;;3.23;100.00
79639;BME280;69114;49.108;8.280;2024-01-07T09:18:41;100274.47;;;3.26;100.00
79639;BME280;69114;49.108;8.280;2024-01-07T09:21:06;100284.13;;;3.29;100.00
79639;BME280;69114;49.108;8.280;2024-01-07T09:23:32;100286.31;;;3.27;100.00
79639;BME280;69114;49.108;8.280;2024-01-07T09:25:59;100286.84;;;3.24;100.00
79639;BME280;69114;49.108;8.280;2024-01-07T09:28:24;100282.41;;;3.23;100.00
79639;BME280;69114;49.108;8.280;2024-01-07T09:30:50;100293.75;;;3.26;100.00
79639;BME280;69114;49.108;8.280;2024-01-07T09:33:15;100295.97;;;3.29;100.00
79639;BME280;69114;49.108;8.280;2024-01-07T09:35:41;100294.00;;;3.25;100.00
79639;BME280;69114;49.108;8.280;2024-01-07T09:38:07;100301.44;;;3.24;100.00
79639;BME280;69114;49.108;8.280;2024-01-07T09:40:32;100306.69;;;3.26;100.00
79639;BME280;69114;49.108;8.280;2024-01-07T09:42:57;100304.50;;;3.28;100.00
79639;BME280;69114;49.108;8.280;2024-01-07T09:45:24;100304.22;;;3.29;100.00
79639;BME280;69114;49.108;8.280;2024-01-07T09:47:50;100304.50;;;3.28;100.00
79639;BME280;69114;49.108;8.280;2024-01-07T09:50:16;100308.88;;;3.24;100.00
79639;BME280;69114;49.108;8.280;2024-01-07T09:52:45;100311.31;;;3.20;100.00
79639;BME280;69114;49.108;8.280;2024-01-07T09:55:18;100312.97;;;3.21;100.00
79639;BME280;69114;49.108;8.280;2024-01-07T09:57:46;100312.69;;;3.23;100.00
79639;BME280;69114;49.108;8.280;2024-01-07T10:00:12;100314.38;;;3.24;100.00
79639;BME280;69114;49.108;8.280;2024-01-07T10:02:38;100314.41;;;3.29;100.00
79639;BME280;69114;49.108;8.280;2024-01-07T10:05:06;100314.16;;;3.30;100.00
79639;BME280;69114;49.108;8.280;2024-01-07T10:07:32;100314.38;;;3.24;100.00
79639;BME280;69114;49.108;8.280;2024-01-07T10:09:58;100313.75;;;3.17;100.00
79639;BME280;69114;49.108;8.280;2024-01-07T10:12:23;100315.19;;;3.19;100.00
79639;BME280;69114;49.108;8.280;2024-01-07T10:14:49;100313.75;;;3.17;100.00
79639;BME280;69114;49.108;8.280;2024-01-07T10:17:16;100320.91;;;3.18;100.00
79639;BME280;69114;49.108;8.280;2024-01-07T10:19:45;100319.31;;;3.22;100.00
79639;BME280;69114;49.108;8.280;2024-01-07T10:22:12;100322.34;;;3.20;100.00
79639;BME280;69114;49.108;8.280;2024-01-07T10:24:41;100327.56;;;3.22;100.00
79639;BME280;69114;49.108;8.280;2024-01-07T10:27:08;100324.28;;;3.25;100.00
79639;BME280;69114;49.108;8.280;2024-01-07T10:29:34;100317.94;;;3.19;100.00
79639;BME280;69114;49.108;8.280;2024-01-07T10:32:00;100323.09;;;3.11;100.00
79639;BME280;69114;49.108;8.280;2024-01-07T10:34:30;100321.97;;;3.12;100.00
79639;BME280;69114;49.108;8.280;2024-01-07T10:36:56;100338.78;;;3.10;100.00
79639;BME280;69114;49.108;8.280;2024-01-07T10:39:23;100331.91;;;3.13;100.00
79639;BME280;69114;49.108;8.280;2024-01-07T10:41:49;100336.34;;;3.14;100.00
79639;BME280;69114;49.108;8.280;2024-01-07T10:44:15;100336.34;;;3.14;100.00
79639;BME280;69114;49.108;8.280;2024-01-07T10:46:42;100339.63;;;3.16;100.00
79639;BME280;69114;49.108;8.280;2024-01-07T10:49:18;100330.50;;;3.10;100.00
79639;BME280;69114;49.108;8.280;2024-01-07T10:51:45;100334.06;;;3.05;100.00
79639;BME280;69114;49.108;8.280;2024-01-07T10:54:13;100342.31;;;3.05;100.00
79639;BME280;69114;49.108;8.280;2024-01-07T10:56:48;100338.94;;;2.98;100.00
79639;BME280;69114;49.108;8.280;2024-01-07T10:59:15;100342.25;;;3.00;100.00
79639;BME280;69114;49.108;8.280;2024-01-07T11:01:41;100348.28;;;2.97;100.00
79639;BME280;69114;49.108;8.280;2024-01-07T11:04:08;100341.44;;;3.00;100.00
79639;BME280;69114;49.108;8.280;2024-01-07T11:06:50;100350.25;;;3.02;100.00
79639;BME280;69114;49.108;8.280;2024-01-07T11:09:28;100350.47;;;2.95;100.00
79639;BME280;69114;49.108;8.280;2024-01-07T11:11:59;100352.97;;;2.97;100.00
79639;BME280;69114;49.108;8.280;2024-01-07T11:14:35;100355.94;;;2.90;100.00
79639;BME280;69114;49.108;8.280;2024-01-07T11:17:07;100360.03;;;2.88;100.00
79639;BME280;69114;49.108;8.280;2024-01-07T11:19:33;100348.78;;;2.94;100.00
79639;BME280;69114;49.108;8.280;2024-01-07T11:22:23;100353.78;;;2.97;100.00
79639;BME280;69114;49.108;8.280;2024-01-07T11:24:51;100359.00;;;2.99;100.00
79639;BME280;69114;49.108;8.280;2024-01-07T11:27:17;100357.13;;;2.99;100.00
79639;BME280;69114;49.108;8.280;2024-01-07T11:29:43;100362.00;;;2.92;100.00
79639;BME280;69114;49.108;8.280;2024-01-07T11:32:12;100364.75;;;2.92;100.00
79639;BME280;69114;49.108;8.280;2024-01-07T11:34:41;100362.78;;;2.88;100.00
79639;BME280;69114;49.108;8.280;2024-01-07T11:37:14;100362.72;;;2.82;100.00
79639;BME280;69114;49.108;8.280;2024-01-07T11:39:47;100362.41;;;2.79;100.00
79639;BME280;69114;49.108;8.280;2024-01-07T11:42:13;100370.09;;;2.77;100.00
79639;BME280;69114;49.108;8.280;2024-01-07T11:44:51;100363.97;;;2.70;100.00
79639;BME280;69114;49.108;8.280;2024-01-07T11:47:17;100361.81;;;2.72;100.00
79639;BME280;69114;49.108;8.280;2024-01-07T11:49:43;100354.88;;;2.69;100.00
79639;BME280;69114;49.108;8.280;2024-01-07T11:52:09;100357.91;;;2.68;100.00
79639;BME280;69114;49.108;8.280;2024-01-07T11:54:36;100357.84;;;2.63;100.00
79639;BME280;69114;49.108;8.280;2024-01-07T11:57:02;100351.25;;;2.64;100.00
79639;BME280;69114;49.108;8.280;2024-01-07T11:59:29;100351.94;;;2.76;100.00
79639;BME280;69114;49.108;8.280;2024-01-07T12:01:55;100355.31;;;2.83;100.00
79639;BME280;69114;49.108;8.280;2024-01-07T12:04:21;100360.63;;;2.90;100.00
79639;BME280;69114;49.108;8.280;2024-01-07T12:06:47;100358.19;;;2.98;100.00
79639;BME280;69114;49.108;8.280;2024-01-07T12:09:13;100356.25;;;2.99;100.00
79639;BME280;69114;49.108;8.280;2024-01-07T12:11:40;100355.44;;;2.98;100.00
79639;BME280;69114;49.108;8.280;2024-01-07T12:14:07;100360.63;;;2.90;100.00
79639;BME280;69114;49.108;8.280;2024-01-07T12:16:33;100358.47;;;2.97;100.00
79639;BME280;69114;49.108;8.280;2024-01-07T12:18:59;100360.97;;;3.03;100.00
79639;BME280;69114;49.108;8.280;2024-01-07T12:21:24;100365.38;;;2.99;100.00
79639;BME280;69114;49.108;8.280;2024-01-07T12:23:52;100371.13;;;2.98;100.00
79639;BME280;69114;49.108;8.280;2024-01-07T12:26:17;100367.00;;;2.95;100.00
79639;BME280;69114;49.108;8.280;2024-01-07T12:28:44;100368.00;;;2.89;100.00
79639;BME280;69114;49.108;8.280;2024-01-07T12:31:10;100362.16;;;2.80;100.00
79639;BME280;69114;49.108;8.280;2024-01-07T12:33:38;100364.59;;;2.77;100.00
79639;BME280;69114;49.108;8.280;2024-01-07T12:36:06;100375.03;;;2.75;100.00
79639;BME280;69114;49.108;8.280;2024-01-07T12:38:32;100375.28;;;2.73;100.00
79639;BME280;69114;49.108;8.280;2024-01-07T12:40:57;100368.31;;;2.66;100.00
79639;BME280;69114;49.108;8.280;2024-01-07T12:43:23;100378.50;;;2.65;100.00
79639;BME280;69114;49.108;8.280;2024-01-07T12:45:49;100381.19;;;2.60;100.00